Time;durP1;ratioP1;P1;durP2;ratioP2;P2;SDS_P1;SDS_P2;PMS_P1;PMS_P2;Temp;Humidity;BMP_temperature;BMP_pressure;BME280_temperature;BME280_humidity;BME280_pressure;Samples;Min_cycle;Max_cycle;Signal;HPM_P1;HPM_P2
2021/09/14 04:05:57;;;;;;;;;;;;;;;12.89;55.23;98788.19;5945367;23;19914;-88
2021/09/14 04:11:15;;;;;;;;;;;;;;;12.91;55.20;98799.63;4979262;28;20453;-88
2021/09/14 04:13:41;;;;;;;;;;;;;;;12.89;55.23;98795.63;4961562;28;19926;-93
2021/09/14 04:16:08;;;;;;;;;;;;;;;12.87;54.66;98798.69;4961737;28;19936;-95
2021/09/14 04:18:34;;;;;;;;;;;;;;;12.84;55.04;98801.31;4977952;28;19961;-91
2021/09/14 04:21:01;;;;;;;;;;;;;;;12.89;55.84;98804.66;4976719;28;19926;-95
2021/09/14 04:23:28;;;;;;;;;;;;;;;12.88;55.58;98804.97;4991773;28;20426;-84
2021/09/14 04:25:54;;;;;;;;;;;;;;;12.94;55.58;98807.16;5000078;28;19932;-94
2021/09/14 04:28:20;;;;;;;;;;;;;;;13.01;55.40;98808.53;4980305;28;19957;-93
2021/09/14 04:30:47;;;;;;;;;;;;;;;12.98;54.77;98811.97;4995652;28;19925;-93
2021/09/14 04:33:13;;;;;;;;;;;;;;;13.03;54.59;98817.25;4973256;28;19933;-91
2021/09/14 04:35:39;;;;;;;;;;;;;;;13.06;54.93;98811.88;4962500;28;19933;-81
2021/09/14 04:38:04;;;;;;;;;;;;;;;13.42;57.48;98815.00;4976350;28;20302;-90
2021/09/14 04:40:31;;;;;;;;;;;;;;;13.79;55.66;98813.81;4976228;28;20480;-79
2021/09/14 04:42:57;;;;;;;;;;;;;;;13.79;52.20;98813.81;4974242;28;19933;-81
2021/09/14 04:45:23;;;;;;;;;;;;;;;13.51;52.85;98815.66;4955973;28;20370;-84
2021/09/14 04:47:50;;;;;;;;;;;;;;;13.38;54.13;98823.94;4973379;28;19934;-84
2021/09/14 04:50:19;;;;;;;;;;;;;;;13.29;53.63;98817.75;4972984;28;20033;-84
2021/09/14 04:52:45;;;;;;;;;;;;;;;13.29;53.82;98803.22;4973326;28;20310;-85
2021/09/14 04:55:10;;;;;;;;;;;;;;;13.26;53.69;98806.66;4955894;28;19929;-85
2021/09/14 04:57:36;;;;;;;;;;;;;;;13.25;52.93;98819.59;4955638;28;20307;-84
2021/09/14 05:00:04;;;;;;;;;;;;;;;13.31;53.89;98817.41;4956437;28;19933;-85
2021/09/14 05:02:31;;;;;;;;;;;;;;;13.33;53.83;98810.44;4956342;28;19926;-84
2021/09/14 05:04:58;;;;;;;;;;;;;;;13.32;53.53;98814.31;4973636;28;20314;-86
2021/09/14 05:07:24;;;;;;;;;;;;;;;13.29;53.64;98819.69;4973431;28;19925;-81
2021/09/14 05:09:51;;;;;;;;;;;;;;;13.25;53.63;98827.81;4956426;28;20346;-85
2021/09/14 05:12:17;;;;;;;;;;;;;;;13.20;54.28;98830.75;4973596;28;19926;-89
2021/09/14 05:14:44;;;;;;;;;;;;;;;13.21;53.44;98829.63;4956404;28;20410;-84
2021/09/14 05:17:21;;;;;;;;;;;;;;;13.18;53.43;98835.78;4956349;28;19977;-82
2021/09/14 05:19:53;;;;;;;;;;;;;;;13.18;52.80;98830.31;4973631;28;19928;-91
2021/09/14 05:22:21;;;;;;;;;;;;;;;13.23;53.41;98837.50;4956237;28;19929;-85
2021/09/14 05:24:47;;;;;;;;;;;;;;;13.19;53.92;98839.34;4973604;28;19926;-91
2021/09/14 05:27:13;;;;;;;;;;;;;;;13.27;53.77;98822.78;4956062;28;19922;-87
2021/09/14 05:29:40;;;;;;;;;;;;;;;13.32;54.04;98836.28;4955997;28;20001;-84
2021/09/14 05:32:07;;;;;;;;;;;;;;;13.40;54.55;98834.56;4955963;28;19926;-84
2021/09/14 05:34:33;;;;;;;;;;;;;;;13.56;54.53;98826.44;4973189;28;19968;-85
2021/09/14 05:36:59;;;;;;;;;;;;;;;13.60;54.02;98824.59;4955821;28;20029;-84
2021/09/14 05:39:25;;;;;;;;;;;;;;;13.66;54.38;98825.16;4956175;28;20025;-84
2021/09/14 05:41:54;;;;;;;;;;;;;;;13.71;54.12;98824.91;4956162;28;20165;-85
2021/09/14 05:44:20;;;;;;;;;;;;;;;13.75;54.60;98832.13;4973524;28;19937;-85
2021/09/14 05:46:47;;;;;;;;;;;;;;;13.74;53.92;98825.06;4973033;28;20016;-91
2021/09/14 05:49:13;;;;;;;;;;;;;;;13.74;53.96;98825.06;4955736;28;19985;-84
2021/09/14 05:51:42;;;;;;;;;;;;;;;13.78;53.82;98831.44;4940664;28;20314;-84
2021/09/14 05:54:08;;;;;;;;;;;;;;;13.85;54.44;98822.63;4956212;28;20362;-84
2021/09/14 05:56:37;;;;;;;;;;;;;;;13.91;55.17;98825.91;4956052;28;20045;-84
2021/09/14 05:59:09;;;;;;;;;;;;;;;13.96;54.42;98829.22;4973224;28;19969;-92
2021/09/14 06:01:34;;;;;;;;;;;;;;;13.97;54.27;98832.78;4956284;28;20028;-83
2021/09/14 06:04:03;;;;;;;;;;;;;;;14.00;54.70;98829.34;4955799;28;19932;-84
2021/09/14 06:06:29;;;;;;;;;;;;;;;14.06;54.89;98834.25;4936324;29;19926;-89
2021/09/14 06:08:56;;;;;;;;;;;;;;;14.10;54.70;98828.84;4953851;28;19930;-83
2021/09/14 06:11:22;;;;;;;;;;;;;;;14.20;55.16;98825.59;4956422;29;19926;-82
2021/09/14 06:13:49;;;;;;;;;;;;;;;14.24;54.89;98820.22;4956326;29;19933;-92
2021/09/14 06:16:18;;;;;;;;;;;;;;;14.16;54.93;98832.16;4957569;28;19926;-86
2021/09/14 06:18:44;;;;;;;;;;;;;;;14.03;54.60;98823.13;4957658;28;19927;-85
2021/09/14 06:21:13;;;;;;;;;;;;;;;13.99;53.93;98827.75;4956305;29;19934;-86
2021/09/14 06:23:40;;;;;;;;;;;;;;;14.07;53.75;98824.03;4956281;29;20399;-83
2021/09/14 06:26:10;;;;;;;;;;;;;;;14.18;55.14;98824.38;4957390;28;19926;-82
2021/09/14 06:28:37;;;;;;;;;;;;;;;14.13;53.53;98827.34;4956826;29;20110;-92
2021/09/14 06:31:03;;;;;;;;;;;;;;;14.19;53.96;98828.72;4957539;29;20435;-93
2021/09/14 06:33:32;;;;;;;;;;;;;;;14.30;54.53;98830.63;4956891;29;20357;-91
2021/09/14 06:35:59;;;;;;;;;;;;;;;14.29;52.55;98833.72;4940906;29;19927;-93
2021/09/14 06:38:29;;;;;;;;;;;;;;;14.29;52.86;98837.25;4956822;29;20450;-95
2021/09/14 06:40:55;;;;;;;;;;;;;;;14.30;53.24;98822.38;4940590;29;19933;-91
2021/09/14 06:43:31;;;;;;;;;;;;;;;14.30;53.47;98816.06;4941893;29;19938;-91
2021/09/14 06:46:20;;;;;;;;;;;;;;;14.32;51.36;98805.53;4938045;29;19927;-94
2021/09/14 06:49:06;;;;;;;;;;;;;;;14.30;52.33;98813.31;4956649;29;19965;-93
2021/09/14 06:51:32;;;;;;;;;;;;;;;14.29;52.60;98828.22;4940270;29;20017;-94
2021/09/14 06:53:58;;;;;;;;;;;;;;;14.40;52.71;98823.00;4940346;29;20419;-93
2021/09/14 06:56:24;;;;;;;;;;;;;;;14.54;51.31;98821.50;4940295;29;19926;-94
2021/09/14 06:58:50;;;;;;;;;;;;;;;14.55;50.94;98831.34;4956002;29;19938;-93
2021/09/14 07:01:20;;;;;;;;;;;;;;;14.64;50.87;98820.19;4940305;29;20065;-93
2021/09/14 07:03:46;;;;;;;;;;;;;;;14.64;51.35;98830.41;4939972;29;19926;-91
2021/09/14 07:06:14;;;;;;;;;;;;;;;14.60;51.11;98834.97;4940249;28;19933;-93
2021/09/14 07:08:40;;;;;;;;;;;;;;;14.54;50.85;98838.00;4940113;29;20021;-94
2021/09/14 07:11:07;;;;;;;;;;;;;;;14.52;51.95;98840.28;4940453;29;19924;-94
2021/09/14 07:13:33;;;;;;;;;;;;;;;14.56;51.46;98837.63;4939694;29;19966;-93
2021/09/14 07:15:59;;;;;;;;;;;;;;;14.58;50.79;98854.59;4955667;29;20016;-92
2021/09/14 07:18:24;;;;;;;;;;;;;;;14.64;47.72;98817.44;4940357;29;19926;-90
2021/09/14 07:20:51;;;;;;;;;;;;;;;14.68;47.74;98823.81;4955398;28;19953;-91
2021/09/14 07:23:17;;;;;;;;;;;;;;;14.58;46.72;98832.59;4939545;29;19930;-93
2021/09/14 07:25:45;;;;;;;;;;;;;;;14.53;47.73;98830.09;4956733;29;19933;-91
2021/09/14 07:28:11;;;;;;;;;;;;;;;14.52;48.30;98825.75;4939543;29;20029;-93
2021/09/14 07:30:37;;;;;;;;;;;;;;;14.51;48.58;98841.44;4956811;28;19926;-92
2021/09/14 07:33:04;;;;;;;;;;;;;;;14.47;47.32;98840.53;4939363;29;19926;-93
2021/09/14 07:35:32;;;;;;;;;;;;;;;14.52;47.32;98845.00;4939617;29;19981;-92
2021/09/14 07:37:58;;;;;;;;;;;;;;;14.64;48.06;98839.44;4955231;29;19927;-92
2021/09/14 07:40:25;;;;;;;;;;;;;;;14.71;46.99;98869.09;4955176;29;19926;-93
2021/09/14 07:42:53;;;;;;;;;;;;;;;14.72;46.10;98843.97;4939269;29;19931;-91
2021/09/14 07:45:19;;;;;;;;;;;;;;;14.55;44.29;98856.09;4955399;29;19977;-91
2021/09/14 07:47:45;;;;;;;;;;;;;;;14.37;44.51;98854.78;4955964;29;19961;-91
2021/09/14 07:50:12;;;;;;;;;;;;;;;14.34;46.11;98861.78;4956729;28;19997;-90
2021/09/14 07:52:38;;;;;;;;;;;;;;;14.47;45.71;98868.03;4955711;29;19934;-89
2021/09/14 07:55:05;;;;;;;;;;;;;;;14.51;46.38;98859.91;4939472;29;19926;-89
2021/09/14 07:57:31;;;;;;;;;;;;;;;14.47;45.82;98859.78;4955858;29;19930;-90
2021/09/14 07:59:58;;;;;;;;;;;;;;;14.48;45.85;98847.63;4940730;29;19927;-90
2021/09/14 08:02:24;;;;;;;;;;;;;;;14.61;47.54;98847.59;4956589;28;20402;-90
2021/09/14 08:04:51;;;;;;;;;;;;;;;14.69;46.49;98855.69;4955172;29;19970;-92
2021/09/14 08:07:17;;;;;;;;;;;;;;;14.74;45.60;98858.19;4971815;28;19926;-90
2021/09/14 08:09:43;;;;;;;;;;;;;;;14.87;44.39;98845.16;4975422;28;19933;-91
2021/09/14 08:12:10;;;;;;;;;;;;;;;14.87;42.89;98866.38;4976595;28;19934;-93
2021/09/14 08:14:36;;;;;;;;;;;;;;;14.91;42.50;98864.53;4975412;28;19933;-91
2021/09/14 08:17:02;;;;;;;;;;;;;;;14.75;43.68;98870.78;4959799;28;19998;-91
2021/09/14 08:19:28;;;;;;;;;;;;;;;14.65;43.93;98859.50;4977275;28;19973;-89
2021/09/14 08:21:54;;;;;;;;;;;;;;;14.83;44.02;98857.22;4976060;28;19921;-92
2021/09/14 08:24:21;;;;;;;;;;;;;;;14.92;43.05;98855.91;4942547;28;20001;-89
2021/09/14 08:26:46;;;;;;;;;;;;;;;14.89;43.38;98858.56;4961001;28;19932;-93
2021/09/14 08:29:17;;;;;;;;;;;;;;;14.72;42.03;98863.22;4946842;28;20295;-90
2021/09/14 08:31:43;;;;;;;;;;;;;;;14.86;42.08;98849.06;4974313;28;19933;-90
2021/09/14 08:34:09;;;;;;;;;;;;;;;14.90;40.93;98857.41;4958506;28;19957;-91
2021/09/14 08:36:35;;;;;;;;;;;;;;;14.95;40.78;98841.44;4941637;28;19925;-91
2021/09/14 08:39:03;;;;;;;;;;;;;;;14.89;40.20;98861.31;4958138;28;19926;-91
2021/09/14 08:41:31;;;;;;;;;;;;;;;14.72;39.11;98877.00;4942973;28;19929;-90
2021/09/14 08:43:58;;;;;;;;;;;;;;;14.82;40.21;98847.38;4958475;28;19926;-96
2021/09/14 08:46:24;;;;;;;;;;;;;;;14.70;40.21;98853.72;4959727;28;19922;-91
2021/09/14 08:48:50;;;;;;;;;;;;;;;14.64;40.41;98853.19;4975787;28;19949;-90
2021/09/14 08:51:16;;;;;;;;;;;;;;;14.65;40.24;98846.53;4976290;28;19925;-90
2021/09/14 08:53:44;;;;;;;;;;;;;;;14.68;39.63;98839.53;4975711;28;19929;-91
2021/09/14 08:56:10;;;;;;;;;;;;;;;14.78;40.07;98848.06;4941955;28;20414;-89
2021/09/14 08:58:37;;;;;;;;;;;;;;;14.74;40.57;98846.38;4941705;28;19926;-96
2021/09/14 09:01:08;;;;;;;;;;;;;;;14.69;41.48;98841.13;4957958;28;20402;-90
2021/09/14 09:03:37;;;;;;;;;;;;;;;14.63;41.66;98851.56;4974274;28;20033;-92
2021/09/14 09:06:04;;;;;;;;;;;;;;;14.69;42.29;98852.13;4953236;29;19980;-91
2021/09/14 09:08:32;;;;;;;;;;;;;;;14.66;41.38;98852.84;4956293;29;19927;-91
2021/09/14 09:11:07;;;;;;;;;;;;;;;14.64;40.78;98853.19;4955033;28;19962;-91
2021/09/14 09:13:48;;;;;;;;;;;;;;;14.53;40.29;98852.09;4956011;28;20351;-90
2021/09/14 09:16:21;;;;;;;;;;;;;;;14.49;38.10;98845.66;4953346;29;19926;-90
2021/09/14 09:18:49;;;;;;;;;;;;;;;14.47;38.30;98842.44;4954922;28;19926;-90
2021/09/14 09:21:15;;;;;;;;;;;;;;;14.46;38.78;98847.16;4954454;28;20395;-90
2021/09/14 09:23:41;;;;;;;;;;;;;;;14.50;37.99;98861.00;4954553;28;19953;-89
2021/09/14 09:26:08;;;;;;;;;;;;;;;14.40;38.72;98856.81;4954361;29;19926;-91
2021/09/14 09:28:34;;;;;;;;;;;;;;;14.41;40.16;98861.16;4955950;28;19997;-94
2021/09/14 09:31:03;;;;;;;;;;;;;;;14.47;39.46;98861.69;4954539;28;20440;-90
2021/09/14 09:33:31;;;;;;;;;;;;;;;14.51;39.36;98859.91;4938628;29;20296;-94
2021/09/14 09:36:01;;;;;;;;;;;;;;;14.63;40.08;98848.84;4954206;28;20391;-90
2021/09/14 09:38:29;;;;;;;;;;;;;;;14.71;42.13;98867.16;4938261;28;19980;-96
2021/09/14 09:40:55;;;;;;;;;;;;;;;14.75;42.48;98870.78;4937931;29;19933;-90
2021/09/14 09:43:29;;;;;;;;;;;;;;;14.66;42.71;98856.38;4937447;29;20515;-90
2021/09/14 09:46:22;;;;;;;;;;;;;;;14.67;42.01;98871.75;4954720;28;19926;-90
2021/09/14 09:48:49;;;;;;;;;;;;;;;14.66;40.97;98870.13;4938555;29;19926;-95
2021/09/14 09:51:15;;;;;;;;;;;;;;;14.65;42.34;98865.78;4938516;29;19927;-91
2021/09/14 09:53:41;;;;;;;;;;;;;;;14.67;42.05;98870.94;4954924;29;19926;-90
2021/09/14 09:56:07;;;;;;;;;;;;;;;14.56;41.76;98879.69;4953765;29;19933;-95
2021/09/14 09:58:34;;;;;;;;;;;;;;;14.57;40.24;98867.56;4955781;29;19930;-90
2021/09/14 10:01:09;;;;;;;;;;;;;;;14.58;39.06;98882.09;4955329;28;19933;-96
2021/09/14 10:03:38;;;;;;;;;;;;;;;14.61;39.41;98875.91;4953487;29;19926;-91
2021/09/14 10:06:08;;;;;;;;;;;;;;;14.59;39.66;98874.66;4937320;29;20015;-90
2021/09/14 10:08:36;;;;;;;;;;;;;;;14.54;40.41;98875.72;4953782;29;19933;-95
2021/09/14 10:11:02;;;;;;;;;;;;;;;14.55;41.12;98882.81;4953468;29;19930;-89
2021/09/14 10:13:30;;;;;;;;;;;;;;;14.37;41.09;98881.44;4955479;28;19933;-92
2021/09/14 10:15:56;;;;;;;;;;;;;;;14.36;41.24;98883.41;4954235;28;19926;-92
2021/09/14 10:18:30;;;;;;;;;;;;;;;14.33;41.52;98881.34;4952873;29;19927;-89
2021/09/14 10:20:57;;;;;;;;;;;;;;;14.46;41.43;98869.16;4936643;29;19927;-90
2021/09/14 10:23:24;;;;;;;;;;;;;;;14.52;41.75;98867.00;4936531;29;19926;-90
2021/09/14 10:26:02;;;;;;;;;;;;;;;14.45;41.57;98870.31;4937068;29;20392;-93
2021/09/14 10:28:41;;;;;;;;;;;;;;;14.29;40.25;98878.50;4953504;29;19934;-92
2021/09/14 10:31:18;;;;;;;;;;;;;;;14.25;40.09;98868.56;4955008;28;19926;-89
2021/09/14 10:33:46;;;;;;;;;;;;;;;14.29;39.79;98884.00;4955376;28;19926;-96
2021/09/14 10:36:13;;;;;;;;;;;;;;;14.36;40.31;98880.66;4952482;29;19926;-90
2021/09/14 10:38:46;;;;;;;;;;;;;;;14.31;40.43;98873.47;4952943;29;20415;-90
2021/09/14 10:41:14;;;;;;;;;;;;;;;14.27;40.53;98869.00;4953583;29;20005;-90
2021/09/14 10:43:41;;;;;;;;;;;;;;;14.24;40.91;98881.50;4954703;29;19934;-91
2021/09/14 10:46:08;;;;;;;;;;;;;;;14.24;41.37;98875.22;4936725;29;19926;-90
2021/09/14 10:48:48;;;;;;;;;;;;;;;14.22;40.29;98888.50;4953187;29;20029;-96
2021/09/14 10:51:17;;;;;;;;;;;;;;;14.14;41.38;98883.91;4955087;29;20032;-90
2021/09/14 10:53:56;;;;;;;;;;;;;;;14.11;42.11;98885.44;4954055;28;19949;-91
2021/09/14 10:56:23;;;;;;;;;;;;;;;14.08;42.56;98883.38;4956961;29;19926;-90
2021/09/14 10:58:49;;;;;;;;;;;;;;;14.09;42.37;98882.22;4940506;29;19933;-90
2021/09/14 11:01:22;;;;;;;;;;;;;;;14.19;41.11;98883.69;4956061;29;19922;-90
2021/09/14 11:04:07;;;;;;;;;;;;;;;14.16;41.70;98882.44;4956338;29;20028;-90
2021/09/14 11:06:34;;;;;;;;;;;;;;;14.13;40.41;98883.13;4955662;29;20351;-89
2021/09/14 11:09:01;;;;;;;;;;;;;;;14.03;40.90;98889.09;4957018;28;20035;-82
2021/09/14 11:11:27;;;;;;;;;;;;;;;14.05;40.82;98886.81;4970161;28;20020;-80
2021/09/14 11:13:54;;;;;;;;;;;;;;;14.09;41.30;98884.97;4975451;28;19961;-81
2021/09/14 11:16:20;;;;;;;;;;;;;;;14.20;41.18;98888.81;4972113;28;19977;-87
2021/09/14 11:18:48;;;;;;;;;;;;;;;14.21;41.03;98884.16;4956633;28;19926;-85
2021/09/14 11:21:15;;;;;;;;;;;;;;;14.23;40.96;98899.13;4956576;28;20009;-82
2021/09/14 11:23:43;;;;;;;;;;;;;;;14.51;41.92;98879.16;4969583;28;20374;-82
2021/09/14 11:26:10;;;;;;;;;;;;;;;14.09;38.90;98905.00;4975519;28;20319;-90
2021/09/14 11:28:37;;;;;;;;;;;;;;;13.98;41.52;98872.88;4973718;28;20387;-82
2021/09/14 11:31:04;;;;;;;;;;;;;;;13.76;40.48;98883.19;4974476;28;20470;-83
2021/09/14 11:33:31;;;;;;;;;;;;;;;13.62;39.85;98896.47;4975362;28;20348;-83
2021/09/14 11:36:00;;;;;;;;;;;;;;;13.70;39.58;98883.75;4975493;28;20012;-82
2021/09/14 11:38:28;;;;;;;;;;;;;;;13.73;39.21;98866.59;4975358;28;19926;-82
2021/09/14 11:40:57;;;;;;;;;;;;;;;13.79;40.11;98871.50;4975636;28;19972;-82
2021/09/14 11:43:23;;;;;;;;;;;;;;;13.92;40.61;98874.25;4975319;28;19930;-89
2021/09/14 11:45:49;;;;;;;;;;;;;;;13.90;41.07;98862.78;4975182;28;19933;-83
2021/09/14 11:48:20;;;;;;;;;;;;;;;13.86;40.87;98874.47;4975463;28;19965;-82
2021/09/14 11:50:46;;;;;;;;;;;;;;;14.04;41.16;98872.28;4975011;28;19927;-82
2021/09/14 11:53:13;;;;;;;;;;;;;;;14.31;41.19;98875.41;4974963;28;19932;-85
2021/09/14 11:55:46;;;;;;;;;;;;;;;14.22;39.28;98867.28;4973912;28;19926;-82
2021/09/14 11:58:16;;;;;;;;;;;;;;;14.02;40.15;98873.75;4974979;28;20390;-82
2021/09/14 12:00:44;;;;;;;;;;;;;;;13.75;41.12;98867.84;4974908;28;19925;-82
2021/09/14 12:03:11;;;;;;;;;;;;;;;13.73;42.30;98863.84;4975005;28;19930;-85
2021/09/14 12:05:37;;;;;;;;;;;;;;;13.73;42.85;98858.34;4976202;28;19972;-82
2021/09/14 12:08:11;;;;;;;;;;;;;;;13.85;41.66;98850.09;4993606;28;19925;-83
2021/09/14 12:10:45;;;;;;;;;;;;;;;13.79;42.50;98845.97;4994253;28;20287;-86
2021/09/14 12:13:17;;;;;;;;;;;;;;;14.00;41.96;98849.38;4994272;28;19934;-82
2021/09/14 12:15:46;;;;;;;;;;;;;;;14.17;41.96;98836.50;4994046;28;20391;-82
2021/09/14 12:18:15;;;;;;;;;;;;;;;14.13;41.18;98858.38;4993904;28;19932;-88
2021/09/14 12:20:44;;;;;;;;;;;;;;;14.45;41.38;98842.81;4994368;28;19932;-83
2021/09/14 12:23:11;;;;;;;;;;;;;;;14.60;42.35;98852.28;4993957;28;20028;-85
2021/09/14 12:25:38;;;;;;;;;;;;;;;14.60;41.49;98846.78;4993958;28;19953;-84
2021/09/14 12:28:04;;;;;;;;;;;;;;;14.58;40.06;98846.34;4993938;28;19984;-82
2021/09/14 12:30:30;;;;;;;;;;;;;;;14.64;40.57;98850.44;4992705;28;19932;-86
2021/09/14 12:32:56;;;;;;;;;;;;;;;14.68;40.56;98851.34;4992434;28;20458;-82
2021/09/14 12:35:22;;;;;;;;;;;;;;;14.64;39.94;98844.16;4993673;28;19957;-82
2021/09/14 12:37:48;;;;;;;;;;;;;;;14.60;39.71;98859.72;4993759;28;20024;-83
2021/09/14 12:40:14;;;;;;;;;;;;;;;14.48;40.05;98847.63;4993741;28;19925;-83
2021/09/14 12:42:40;;;;;;;;;;;;;;;14.55;39.99;98872.59;4993561;28;19987;-82
2021/09/14 12:45:06;;;;;;;;;;;;;;;14.61;40.15;98866.84;4993391;28;19930;-83
2021/09/14 12:47:32;;;;;;;;;;;;;;;14.67;39.93;98870.94;4993762;28;19926;-83
2021/09/14 12:49:59;;;;;;;;;;;;;;;14.62;40.98;98868.44;4993438;28;19929;-83
2021/09/14 12:52:27;;;;;;;;;;;;;;;14.47;41.13;98864.44;4993299;28;19925;-84
2021/09/14 12:54:54;;;;;;;;;;;;;;;14.46;41.28;98869.16;4993325;28;20608;-89
2021/09/14 12:57:19;;;;;;;;;;;;;;;14.54;41.08;98867.47;4993262;28;19933;-83
2021/09/14 12:59:45;;;;;;;;;;;;;;;14.68;41.37;98886.31;4993824;28;20358;-89
2021/09/14 13:02:11;;;;;;;;;;;;;;;14.62;41.49;98884.94;4993335;28;20314;-83
2021/09/14 13:04:37;;;;;;;;;;;;;;;14.51;40.87;98870.91;4993131;28;19926;-83
2021/09/14 13:07:03;;;;;;;;;;;;;;;14.32;41.63;98872.31;4982759;28;19926;-90
2021/09/14 13:09:28;;;;;;;;;;;;;;;14.28;42.11;98873.38;4973379;28;19948;-89
2021/09/14 13:11:54;;;;;;;;;;;;;;;14.24;42.68;98872.47;4974902;28;20391;-88
2021/09/14 13:17:05;;;;;;;;;;;;;;;14.08;42.59;98873.19;4991672;28;19925;-86
2021/09/14 13:19:31;;;;;;;;;;;;;;;14.04;43.43;98880.53;4991891;28;20375;-89
2021/09/14 13:21:59;;;;;;;;;;;;;;;13.99;42.47;98882.69;4973940;28;19922;-82
2021/09/14 13:24:25;;;;;;;;;;;;;;;14.07;42.98;98890.00;4991773;28;20388;-81
2021/09/14 13:26:51;;;;;;;;;;;;;;;14.17;42.28;98883.22;4992633;28;20012;-82
2021/09/14 13:29:16;;;;;;;;;;;;;;;14.30;42.57;98893.88;4993195;28;19926;-82
2021/09/14 13:31:43;;;;;;;;;;;;;;;14.41;40.98;98883.16;4986358;28;19926;-91
2021/09/14 13:34:11;;;;;;;;;;;;;;;14.63;40.77;98875.53;4973161;28;19980;-82
2021/09/14 13:36:38;;;;;;;;;;;;;;;14.67;40.62;98882.75;4973527;28;19926;-82
2021/09/14 13:39:04;;;;;;;;;;;;;;;14.68;41.28;98876.09;4973438;28;19945;-82
2021/09/14 13:41:37;;;;;;;;;;;;;;;14.62;41.36;98876.69;4973119;28;19976;-83
2021/09/14 13:46:48;;;;;;;;;;;;;;;14.26;38.99;98879.19;4973097;28;20409;-82
2021/09/14 13:49:13;;;;;;;;;;;;;;;14.04;39.16;98863.25;4973055;28;19961;-82
2021/09/14 13:51:41;;;;;;;;;;;;;;;13.93;39.88;98878.59;4973038;28;20073;-83
2021/09/14 13:54:07;;;;;;;;;;;;;;;13.86;39.80;98874.47;4973012;28;20543;-82
2021/09/14 13:56:33;;;;;;;;;;;;;;;13.82;40.56;98870.03;4972989;28;20032;-82
2021/09/14 13:58:59;;;;;;;;;;;;;;;13.84;39.57;98876.78;4973107;28;20021;-87
2021/09/14 14:01:26;;;;;;;;;;;;;;;13.99;38.70;98871.72;4973326;28;20029;-83
2021/09/14 14:03:52;;;;;;;;;;;;;;;14.16;38.65;98870.63;4972942;28;19934;-81
2021/09/14 14:06:18;;;;;;;;;;;;;;;14.25;38.72;98869.34;4972638;28;19971;-80
2021/09/14 14:08:44;;;;;;;;;;;;;;;14.28;38.68;98865.13;4979695;28;19926;-82
2021/09/14 14:11:11;;;;;;;;;;;;;;;14.35;37.81;98859.81;5008848;28;19925;-80
2021/09/14 14:13:37;;;;;;;;;;;;;;;14.39;36.79;98859.91;5004546;28;19988;-80
2021/09/14 14:16:04;;;;;;;;;;;;;;;14.32;37.56;98855.81;4992202;28;20355;-81
2021/09/14 14:18:33;;;;;;;;;;;;;;;14.14;38.18;98857.25;4991940;28;20016;-84
2021/09/14 14:20:59;;;;;;;;;;;;;;;13.93;38.85;98868.38;4997003;28;19932;-81
2021/09/14 14:27:06;;;;;;;;;;;;;;;13.62;39.09;98849.78;4990401;28;19960;-86
2021/09/14 14:29:42;;;;;;;;;;;;;;;13.63;39.94;98854.91;4976019;28;19925;-81
2021/09/14 14:36:15;;;;;;;;;;;;;;;13.57;39.29;98855.50;4994451;28;20374;-81
2021/09/14 14:39:03;;;;;;;;;;;;;;;13.62;39.93;98858.03;4978644;28;19933;-81
2021/09/14 14:41:33;;;;;;;;;;;;;;;14.00;48.20;98868.59;4961876;28;20395;-84
2021/09/14 14:43:59;;;;;;;;;;;;;;;14.59;49.26;98858.94;4991577;28;19957;-81
2021/09/14 14:46:26;;;;;;;;;;;;;;;14.47;38.47;98847.94;4990451;28;20418;-88
2021/09/14 14:48:52;;;;;;;;;;;;;;;14.18;39.52;98849.13;4993730;28;19925;-80
2021/09/14 14:51:18;;;;;;;;;;;;;;;13.95;39.28;98843.31;4995352;28;19926;-80
2021/09/14 14:53:43;;;;;;;;;;;;;;;13.76;39.85;98844.72;4994630;28;19926;-79
2021/09/14 14:56:09;;;;;;;;;;;;;;;13.72;40.96;98852.06;4995186;28;20566;-88
2021/09/14 14:58:35;;;;;;;;;;;;;;;13.71;40.00;98850.47;4975476;28;19925;-81
2021/09/14 15:01:01;;;;;;;;;;;;;;;13.66;40.50;98860.88;4994465;28;20016;-80
2021/09/14 15:03:27;;;;;;;;;;;;;;;13.54;40.72;98857.00;4995065;28;20080;-92
2021/09/14 15:05:53;;;;;;;;;;;;;;;13.49;41.88;98856.41;4994614;28;20028;-81
2021/09/14 15:08:18;;;;;;;;;;;;;;;13.46;42.63;98844.19;4976996;28;19937;-94
2021/09/14 15:10:44;;;;;;;;;;;;;;;13.44;42.34;98853.88;4994789;28;19933;-80
2021/09/14 15:13:10;;;;;;;;;;;;;;;13.38;42.56;98845.91;4975256;28;20020;-87
2021/09/14 15:15:36;;;;;;;;;;;;;;;13.38;43.86;98834.13;4994577;28;19972;-83
2021/09/14 15:18:03;;;;;;;;;;;;;;;13.40;43.38;98853.78;4995116;28;19930;-91
2021/09/14 15:20:29;;;;;;;;;;;;;;;13.34;43.13;98860.63;4994747;28;19929;-88
2021/09/14 15:22:55;;;;;;;;;;;;;;;13.26;43.18;98856.88;4977632;28;20406;-94
2021/09/14 15:25:22;;;;;;;;;;;;;;;13.19;44.14;98861.28;4977119;28;20453;-93
2021/09/14 15:27:48;;;;;;;;;;;;;;;13.07;44.76;98854.63;4992850;28;20032;-88
2021/09/14 15:30:30;;;;;;;;;;;;;;;13.04;45.36;98865.47;4993164;28;19952;-94
2021/09/14 15:32:57;;;;;;;;;;;;;;;12.98;45.61;98862.19;4970638;28;19926;-93
2021/09/14 15:35:24;;;;;;;;;;;;;;;12.98;45.04;98875.06;4993585;28;20405;-80
2021/09/14 15:37:50;;;;;;;;;;;;;;;12.94;46.67;98869.47;4960216;28;19926;-91
2021/09/14 15:40:15;;;;;;;;;;;;;;;12.89;47.26;98861.47;4994274;28;20295;-79
2021/09/14 15:42:41;;;;;;;;;;;;;;;12.80;47.90;98867.03;4992358;28;19984;-82
2021/09/14 15:45:07;;;;;;;;;;;;;;;12.73;47.22;98861.31;4994491;28;19926;-80
2021/09/14 15:47:34;;;;;;;;;;;;;;;12.65;47.06;98853.97;4994474;28;20366;-80
2021/09/14 15:50:00;;;;;;;;;;;;;;;12.67;47.50;98862.66;4994531;28;19930;-81
2021/09/14 15:52:26;;;;;;;;;;;;;;;12.62;47.23;98860.13;4995078;28;19937;-92
2021/09/14 15:54:52;;;;;;;;;;;;;;;12.58;48.01;98861.94;4994087;28;20012;-82
2021/09/14 15:57:17;;;;;;;;;;;;;;;12.56;47.49;98858.75;4997272;28;20307;-90
2021/09/14 15:59:44;;;;;;;;;;;;;;;12.46;48.59;98862.69;4993853;28;20461;-89
2021/09/14 16:02:10;;;;;;;;;;;;;;;12.37;49.26;98861.97;4988680;28;19933;-87
2021/09/14 16:04:36;;;;;;;;;;;;;;;12.31;48.68;98868.78;4995632;28;19926;-82
2021/09/14 16:07:02;;;;;;;;;;;;;;;12.35;49.27;98870.53;4972096;28;19930;-92
2021/09/14 16:09:28;;;;;;;;;;;;;;;12.36;49.28;98861.16;4973142;28;19937;-96
2021/09/14 16:11:54;;;;;;;;;;;;;;;12.37;48.30;98873.72;4974883;28;19926;-81
2021/09/14 16:14:21;;;;;;;;;;;;;;;12.35;49.14;98865.06;4969338;28;19926;-90
2021/09/14 16:16:48;;;;;;;;;;;;;;;12.34;49.09;98866.19;4974611;28;20522;-89
2021/09/14 16:19:14;;;;;;;;;;;;;;;12.28;48.91;98873.00;4974904;28;20012;-95
2021/09/14 16:21:44;;;;;;;;;;;;;;;12.28;49.12;98869.44;4976572;28;20367;-90
2021/09/14 16:24:10;;;;;;;;;;;;;;;12.18;49.35;98870.66;4973347;28;19926;-94
2021/09/14 16:26:35;;;;;;;;;;;;;;;12.17;49.89;98869.06;4972380;28;19922;-89
2021/09/14 16:29:01;;;;;;;;;;;;;;;12.18;49.69;98867.91;4973128;28;19937;-88
2021/09/14 16:31:27;;;;;;;;;;;;;;;12.12;49.72;98872.00;4961974;28;19926;-84
2021/09/14 16:33:52;;;;;;;;;;;;;;;12.10;50.26;98872.34;4973770;28;20388;-93
2021/09/14 16:36:21;;;;;;;;;;;;;;;12.08;50.30;98866.38;4973801;28;19926;-92
2021/09/14 16:38:47;;;;;;;;;;;;;;;12.04;49.90;98876.41;4965481;28;19926;-84
2021/09/14 16:41:13;;;;;;;;;;;;;;;12.06;50.80;98876.88;4952564;29;20348;-92
2021/09/14 16:43:38;;;;;;;;;;;;;;;12.05;50.24;98880.75;4954195;28;19933;-91
2021/09/14 16:46:05;;;;;;;;;;;;;;;12.13;52.44;98879.09;4964322;28;19949;-87
2021/09/14 16:48:32;;;;;;;;;;;;;;;12.60;52.98;98871.44;4986922;28;19936;-88
2021/09/14 16:50:58;;;;;;;;;;;;;;;12.41;49.93;98868.38;4983817;28;19980;-92
2021/09/14 16:53:24;;;;;;;;;;;;;;;12.23;50.45;98871.25;4971974;28;19972;-94
2021/09/14 16:55:50;;;;;;;;;;;;;;;12.12;51.11;98866.50;4990381;28;19926;-85
2021/09/14 16:58:17;;;;;;;;;;;;;;;12.06;52.01;98870.59;4970245;28;19926;-85
2021/09/14 17:00:45;;;;;;;;;;;;;;;11.96;52.32;98867.13;4975702;28;19926;-84
2021/09/14 17:03:10;;;;;;;;;;;;;;;11.97;52.42;98860.50;4971051;28;19941;-86
2021/09/14 17:05:36;;;;;;;;;;;;;;;11.92;52.77;98865.38;4969318;28;19929;-86
2021/09/14 17:08:03;;;;;;;;;;;;;;;11.86;52.95;98853.81;4988344;28;20252;-85
2021/09/14 17:10:30;;;;;;;;;;;;;;;11.85;53.25;98865.88;4988104;28;20374;-85